Time;durP1;ratioP1;P1;durP2;ratioP2;P2;SDS_P1;SDS_P2;PMS_P1;PMS_P2;Temp;Humidity;BMP_temperature;BMP_pressure;BME280_temperature;BME280_humidity;BME280_pressure;Samples;Min_cycle;Max_cycle;Signal;HPM_P1;HPM_P2
2023/10/09 00:02:15;;;;;;;23.40;11.47;;;14.70;99.90;;;;;;5055761;28;20530;-78
2023/10/09 00:04:45;;;;;;;15.33;10.27;;;14.80;99.90;;;;;;5056915;28;20524;-78
2023/10/09 00:07:12;;;;;;;18.37;10.93;;;14.70;99.90;;;;;;5056260;28;20580;-78
2023/10/09 00:09:46;;;;;;;15.13;12.00;;;14.70;99.90;;;;;;5055660;28;20467;-78
2023/10/09 00:12:16;;;;;;;17.50;11.00;;;14.80;99.90;;;;;;5057146;28;20848;-77
2023/10/09 00:14:47;;;;;;;16.20;10.33;;;14.70;99.90;;;;;;5056031;28;20883;-77
2023/10/09 00:17:19;;;;;;;15.40;10.83;;;14.70;99.90;;;;;;5056862;28;20463;-77
2023/10/09 00:19:47;;;;;;;15.43;11.07;;;14.70;99.90;;;;;;5057322;28;20545;-77
2023/10/09 00:22:23;;;;;;;17.97;10.10;;;14.80;99.90;;;;;;5057102;28;20542;-78
2023/10/09 00:25:09;;;;;;;17.80;12.03;;;14.80;99.90;;;;;;5055941;28;20453;-78
2023/10/09 00:27:41;;;;;;;14.37;11.20;;;14.80;99.90;;;;;;5056145;28;20773;-77
2023/10/09 00:30:09;;;;;;;15.80;11.30;;;14.80;99.90;;;;;;5056313;28;20460;-78
2023/10/09 00:32:37;;;;;;;16.23;11.43;;;14.80;99.90;;;;;;5056330;28;20464;-78
2023/10/09 00:35:36;;;;;;;17.80;11.40;;;14.80;99.90;;;;;;5056031;28;20829;-78
2023/10/09 00:38:06;;;;;;;15.40;10.40;;;14.90;99.90;;;;;;5055096;28;20455;-77
2023/10/09 00:40:35;;;;;;;19.23;12.10;;;14.90;99.90;;;;;;5054962;28;20511;-77
2023/10/09 00:43:06;;;;;;;24.90;14.27;;;14.90;99.90;;;;;;5055274;28;20546;-78
2023/10/09 00:45:39;;;;;;;19.73;12.97;;;14.80;99.90;;;;;;5056284;28;20641;-78
2023/10/09 00:48:08;;;;;;;21.37;12.13;;;14.80;99.90;;;;;;5055133;28;20500;-77
2023/10/09 00:50:36;;;;;;;20.53;12.53;;;14.90;99.90;;;;;;5055320;28;20554;-78
2023/10/09 00:53:12;;;;;;;21.83;12.63;;;15.00;99.90;;;;;;5056418;28;20463;-79
2023/10/09 00:55:45;;;;;;;18.73;13.10;;;15.00;99.90;;;;;;5055579;28;20885;-78
2023/10/09 00:58:15;;;;;;;16.90;11.43;;;15.10;99.90;;;;;;5055126;28;20475;-77
2023/10/09 01:00:52;;;;;;;15.30;10.53;;;15.20;99.90;;;;;;5056251;28;20562;-79
2023/10/09 01:03:22;;;;;;;25.10;11.03;;;15.20;99.90;;;;;;5047772;28;20455;-78
2023/10/09 01:05:56;;;;;;;23.10;13.07;;;15.30;99.90;;;;;;5053299;28;20465;-77
2023/10/09 01:08:30;;;;;;;18.10;11.73;;;15.30;99.90;;;;;;5049927;28;20513;-78
2023/10/09 01:11:08;;;;;;;21.00;11.47;;;15.30;99.90;;;;;;5052319;28;21014;-78
2023/10/09 01:13:52;;;;;;;14.13;10.70;;;15.40;99.90;;;;;;5053415;28;20461;-79
2023/10/09 01:16:21;;;;;;;18.17;11.17;;;15.40;99.90;;;;;;5053370;28;20451;-79
2023/10/09 01:18:50;;;;;;;16.90;11.73;;;15.40;99.90;;;;;;5052574;28;20464;-78
2023/10/09 01:21:17;;;;;;;17.13;10.40;;;15.40;99.90;;;;;;5048355;28;20474;-78
2023/10/09 01:24:03;;;;;;;16.00;10.00;;;15.50;99.90;;;;;;5059916;28;20461;-78
2023/10/09 01:26:32;;;;;;;14.00;10.07;;;15.50;99.90;;;;;;5053179;28;20452;-79
2023/10/09 01:28:59;;;;;;;15.23;11.50;;;15.50;99.90;;;;;;5058795;28;20464;-78
2023/10/09 01:31:27;;;;;;;16.77;9.83;;;15.50;99.90;;;;;;5059269;28;20482;-79
2023/10/09 01:33:54;;;;;;;15.60;10.97;;;15.50;99.90;;;;;;5060088;28;20466;-78
2023/10/09 01:36:31;;;;;;;17.70;10.70;;;15.50;99.90;;;;;;5061315;28;20963;-78
2023/10/09 01:39:01;;;;;;;14.33;10.30;;;15.50;99.90;;;;;;5059345;28;20495;-77
2023/10/09 01:41:33;;;;;;;15.47;10.33;;;15.40;99.90;;;;;;5060405;28;20480;-79
2023/10/09 01:44:03;;;;;;;13.43;10.37;;;15.50;99.90;;;;;;5056968;28;20463;-78
2023/10/09 01:46:33;;;;;;;15.03;10.40;;;15.50;99.90;;;;;;5056624;28;20477;-78
2023/10/09 01:49:08;;;;;;;15.60;10.60;;;15.50;99.90;;;;;;5056269;28;20466;-79
2023/10/09 01:51:36;;;;;;;15.60;10.07;;;15.50;99.90;;;;;;5056853;28;21018;-79
2023/10/09 01:54:04;;;;;;;13.40;10.87;;;15.50;99.90;;;;;;5056011;28;20832;-79
2023/10/09 01:56:36;;;;;;;16.47;10.40;;;15.50;99.90;;;;;;5057278;28;20816;-78
2023/10/09 01:59:05;;;;;;;16.30;9.60;;;15.50;99.90;;;;;;5055936;28;20466;-78
2023/10/09 02:01:33;;;;;;;15.00;10.40;;;15.50;99.90;;;;;;5056739;28;20565;-78
2023/10/09 02:04:05;;;;;;;15.30;9.90;;;15.50;99.90;;;;;;5056142;28;20467;-78
2023/10/09 02:06:32;;;;;;;14.67;10.67;;;15.50;99.90;;;;;;5056526;28;20459;-78
2023/10/09 02:08:59;;;;;;;12.83;8.73;;;15.50;99.90;;;;;;5055760;28;20910;-77
2023/10/09 02:11:41;;;;;;;17.23;9.87;;;15.50;99.90;;;;;;5056313;28;20495;-79
2023/10/09 02:14:19;;;;;;;15.80;10.37;;;15.50;99.90;;;;;;5060249;28;20520;-79
2023/10/09 02:17:02;;;;;;;17.93;10.33;;;15.40;99.90;;;;;;5056515;28;20528;-78
2023/10/09 02:19:33;;;;;;;15.93;9.80;;;15.50;99.90;;;;;;5055797;28;20486;-79
2023/10/09 02:22:02;;;;;;;15.90;10.00;;;15.50;99.90;;;;;;5056567;28;20471;-78
2023/10/09 02:27:19;;;;;;;14.87;11.07;;;15.40;99.90;;;;;;5055316;28;20540;-77
2023/10/09 02:29:47;;;;;;;16.10;11.30;;;15.40;99.90;;;;;;5056109;28;20443;-77
2023/10/09 02:32:14;;;;;;;16.83;10.83;;;15.40;99.90;;;;;;5055492;28;21052;-78
2023/10/09 02:34:46;;;;;;;13.30;11.23;;;15.40;99.90;;;;;;5056324;28;20480;-77
2023/10/09 02:37:14;;;;;;;14.80;12.03;;;15.50;99.90;;;;;;5056006;28;20456;-77
2023/10/09 02:39:47;;;;;;;15.33;10.60;;;15.50;99.90;;;;;;5055441;28;20462;-78
2023/10/09 02:42:23;;;;;;;24.43;12.87;;;15.50;99.90;;;;;;5056097;28;20535;-78
2023/10/09 02:44:51;;;;;;;14.80;11.50;;;15.50;99.90;;;;;;5055736;28;20454;-78
2023/10/09 02:47:20;;;;;;;14.43;11.00;;;15.50;99.90;;;;;;5055328;28;20544;-77
2023/10/09 02:49:50;;;;;;;14.50;10.07;;;15.50;99.90;;;;;;5055765;28;20452;-78
2023/10/09 02:52:24;;;;;;;20.90;13.77;;;15.50;99.90;;;;;;5056459;28;20502;-77
2023/10/09 02:54:59;;;;;;;17.40;11.83;;;15.60;99.90;;;;;;5055696;28;20545;-78
2023/10/09 02:57:35;;;;;;;18.37;12.47;;;15.60;99.90;;;;;;5052279;28;20445;-79
2023/10/09 03:00:03;;;;;;;17.17;11.97;;;15.60;99.90;;;;;;5055473;28;20448;-78
2023/10/09 03:02:31;;;;;;;19.87;13.50;;;15.60;99.90;;;;;;5055139;28;20475;-78
2023/10/09 03:04:59;;;;;;;17.47;12.63;;;15.60;99.90;;;;;;5055438;28;20459;-78
2023/10/09 03:07:26;;;;;;;19.43;12.87;;;15.70;99.90;;;;;;5054621;28;20617;-78
2023/10/09 03:09:52;;;;;;;22.73;13.90;;;15.70;99.90;;;;;;5054970;28;20567;-78
2023/10/09 03:12:21;;;;;;;19.47;12.80;;;15.70;99.90;;;;;;5055278;28;20492;-78
2023/10/09 03:14:50;;;;;;;23.40;13.67;;;15.80;99.90;;;;;;5056142;28;20467;-77
2023/10/09 03:17:18;;;;;;;19.30;12.43;;;15.80;99.90;;;;;;5051712;28;20463;-78
2023/10/09 03:19:45;;;;;;;14.67;11.60;;;15.90;99.90;;;;;;5055993;28;20456;-77
2023/10/09 03:22:12;;;;;;;22.47;13.00;;;15.90;99.90;;;;;;5055054;28;20547;-77
2023/10/09 03:24:43;;;;;;;17.43;11.60;;;15.90;99.90;;;;;;5054468;28;20455;-77
2023/10/09 03:27:10;;;;;;;15.17;10.93;;;15.90;99.90;;;;;;5053486;28;20458;-78
2023/10/09 03:29:37;;;;;;;16.90;11.90;;;15.80;99.90;;;;;;5054752;28;20871;-77
2023/10/09 03:32:06;;;;;;;15.43;10.87;;;15.90;99.90;;;;;;5053748;28;20487;-78
2023/10/09 03:34:33;;;;;;;13.17;9.10;;;16.00;99.90;;;;;;5054865;28;20456;-79
2023/10/09 03:37:21;;;;;;;16.30;10.43;;;16.00;99.90;;;;;;5053798;28;20946;-79
2023/10/09 03:39:48;;;;;;;12.30;9.33;;;16.00;99.90;;;;;;5055214;28;20990;-77
2023/10/09 03:42:19;;;;;;;15.70;9.87;;;16.10;99.90;;;;;;5055274;28;21027;-78
2023/10/09 03:44:52;;;;;;;14.80;8.63;;;16.10;99.90;;;;;;5054709;28;20483;-78
2023/10/09 03:47:22;;;;;;;10.70;8.57;;;16.10;99.90;;;;;;5046432;28;20840;-78
2023/10/09 03:49:51;;;;;;;18.00;9.47;;;16.10;99.90;;;;;;5054774;28;20543;-79
2023/10/09 03:52:19;;;;;;;11.77;8.60;;;16.20;99.90;;;;;;5048460;28;20484;-78
2023/10/09 03:54:46;;;;;;;16.03;9.63;;;16.20;99.90;;;;;;5054417;28;20883;-77
2023/10/09 03:57:18;;;;;;;11.20;8.10;;;16.20;99.90;;;;;;5054993;28;20957;-78
2023/10/09 03:59:46;;;;;;;13.03;9.30;;;16.20;99.90;;;;;;5054680;28;20480;-78
2023/10/09 04:02:13;;;;;;;14.27;8.47;;;16.10;99.90;;;;;;5054102;28;20475;-78
2023/10/09 04:04:46;;;;;;;14.43;9.77;;;16.10;99.90;;;;;;5056226;28;20832;-78
2023/10/09 04:07:16;;;;;;;13.17;8.20;;;16.20;99.90;;;;;;5056293;28;20475;-79
2023/10/09 04:09:47;;;;;;;12.43;8.47;;;16.10;99.90;;;;;;5057259;28;20465;-78
2023/10/09 04:12:20;;;;;;;16.33;9.20;;;16.10;99.90;;;;;;5054462;28;21011;-80
2023/10/09 04:14:54;;;;;;;12.17;8.80;;;16.10;99.90;;;;;;5056149;28;20506;-79
2023/10/09 04:17:34;;;;;;;17.37;9.93;;;16.10;99.90;;;;;;5055300;28;20454;-78
2023/10/09 04:22:51;;;;;;;13.00;8.07;;;16.00;99.90;;;;;;5059881;28;20423;-78
2023/10/09 04:25:25;;;;;;;12.20;8.10;;;16.00;99.90;;;;;;5059067;28;20460;-80
2023/10/09 04:27:59;;;;;;;14.10;9.23;;;16.00;99.90;;;;;;5050655;28;20514;-77
2023/10/09 04:30:27;;;;;;;13.13;8.77;;;16.00;99.90;;;;;;5053966;28;20584;-78
2023/10/09 04:32:59;;;;;;;14.50;9.10;;;16.00;99.90;;;;;;5056367;28;20496;-78
2023/10/09 04:35:34;;;;;;;13.30;8.53;;;16.00;99.90;;;;;;5056496;28;20488;-78
2023/10/09 04:38:05;;;;;;;10.03;7.13;;;16.00;99.90;;;;;;5053525;28;20578;-78
2023/10/09 04:40:59;;;;;;;11.97;8.87;;;16.00;99.90;;;;;;5054136;28;20571;-79
2023/10/09 04:43:26;;;;;;;12.40;9.07;;;16.10;99.90;;;;;;5048220;28;20450;-78
2023/10/09 04:46:12;;;;;;;10.47;7.73;;;16.20;99.90;;;;;;5054906;28;20550;-77
2023/10/09 04:48:38;;;;;;;19.03;9.80;;;16.20;99.90;;;;;;5053829;28;20461;-78
2023/10/09 04:51:34;;;;;;;13.30;8.10;;;16.10;99.90;;;;;;5053455;28;20890;-78
2023/10/09 04:54:12;;;;;;;15.40;9.90;;;16.10;99.90;;;;;;5053039;28;20443;-78
2023/10/09 04:56:51;;;;;;;11.07;8.40;;;16.10;99.90;;;;;;5054706;28;20443;-79
2023/10/09 04:59:19;;;;;;;15.10;8.10;;;16.20;99.90;;;;;;5052676;28;20545;-78
2023/10/09 05:01:57;;;;;;;12.93;8.03;;;16.20;99.90;;;;;;5052806;28;20475;-78
2023/10/09 05:04:41;;;;;;;11.97;7.50;;;16.20;99.90;;;;;;5046669;28;20456;-78
2023/10/09 05:07:22;;;;;;;10.87;7.97;;;16.20;99.90;;;;;;5054632;28;20457;-77
2023/10/09 05:09:57;;;;;;;13.57;9.43;;;16.20;99.90;;;;;;5053430;28;20478;-78
2023/10/09 05:12:27;;;;;;;8.53;6.27;;;16.20;99.90;;;;;;5054179;28;20502;-77
2023/10/09 05:15:08;;;;;;;10.40;7.90;;;16.20;99.90;;;;;;5052580;28;20538;-78
2023/10/09 05:17:35;;;;;;;12.80;8.57;;;16.30;99.90;;;;;;5052629;28;20907;-78
2023/10/09 05:22:58;;;;;;;11.80;8.13;;;16.20;99.90;;;;;;5056238;28;20443;-78
2023/10/09 05:31:08;;;;;;;8.50;7.27;;;16.20;99.90;;;;;;5026851;28;20459;-78
2023/10/09 05:33:36;;;;;;;10.30;7.20;;;16.20;99.90;;;;;;5054260;28;20486;-78
2023/10/09 05:36:35;;;;;;;9.53;7.37;;;16.20;99.90;;;;;;5050419;28;20451;-79
2023/10/09 05:39:40;;;;;;;10.73;7.17;;;16.20;99.90;;;;;;5050709;28;20882;-77
2023/10/09 05:42:09;;;;;;;11.47;8.00;;;16.20;99.90;;;;;;5054005;28;20510;-78
2023/10/09 05:47:35;;;;;;;13.20;8.70;;;16.10;99.90;;;;;;5049886;28;20412;-78
2023/10/09 05:53:04;;;;;;;12.20;7.40;;;16.20;99.90;;;;;;5052681;28;20537;-78
2023/10/09 05:57:00;;;;;;;12.90;8.90;;;16.20;99.90;;;;;;5052119;28;20823;-78
2023/10/09 06:01:06;;;;;;;13.90;8.27;;;16.20;99.90;;;;;;5047778;28;20815;-78
2023/10/09 06:04:41;;;;;;;12.97;7.83;;;16.20;99.90;;;;;;5036655;28;20442;-79
2023/10/09 06:07:13;;;;;;;11.87;8.00;;;16.20;99.90;;;;;;5054285;28;20468;-79
2023/10/09 06:09:55;;;;;;;13.80;8.67;;;16.20;99.90;;;;;;5054805;28;20464;-79
2023/10/09 06:12:49;;;;;;;10.10;8.13;;;16.20;99.90;;;;;;5047387;28;20487;-78
2023/10/09 06:18:25;;;;;;;10.57;8.10;;;16.20;99.90;;;;;;5049263;28;20505;-78
2023/10/09 06:24:09;;;;;;;12.43;8.23;;;16.30;99.90;;;;;;5055412;28;20429;-78
2023/10/09 06:26:36;;;;;;;14.63;10.27;;;16.30;99.90;;;;;;5064996;28;20484;-77
2023/10/09 06:29:30;;;;;;;8.90;7.80;;;16.30;99.90;;;;;;5063124;28;20514;-78
2023/10/09 06:32:16;;;;;;;12.93;7.63;;;16.30;99.90;;;;;;5061274;28;20995;-78
2023/10/09 06:34:45;;;;;;;12.80;7.67;;;16.40;99.90;;;;;;5060830;28;20526;-78
2023/10/09 06:37:34;;;;;;;11.53;7.97;;;16.40;99.90;;;;;;5061501;28;20443;-78
2023/10/09 06:42:51;;;;;;;11.60;9.00;;;16.40;99.90;;;;;;5066283;28;20494;-78
2023/10/09 06:45:20;;;;;;;12.00;8.50;;;16.40;99.90;;;;;;5055970;28;20458;-77
2023/10/09 06:47:55;;;;;;;12.33;8.40;;;16.50;99.90;;;;;;5057551;28;20505;-78
2023/10/09 06:50:25;;;;;;;16.07;11.10;;;16.50;99.90;;;;;;5051286;28;20539;-78
2023/10/09 06:53:18;;;;;;;13.00;9.30;;;16.50;99.90;;;;;;5066343;28;20566;-79
2023/10/09 06:55:49;;;;;;;13.57;9.40;;;16.60;99.90;;;;;;5062414;28;20448;-80
2023/10/09 06:58:22;;;;;;;12.87;9.10;;;16.60;99.90;;;;;;5070152;28;20448;-80
2023/10/09 07:01:19;;;;;;;14.67;9.57;;;16.60;99.90;;;;;;5065674;28;20506;-78
2023/10/09 07:03:52;;;;;;;14.80;9.90;;;16.70;99.90;;;;;;5056077;28;20437;-78
2023/10/09 07:06:24;;;;;;;12.73;9.40;;;16.80;99.90;;;;;;5062550;28;20707;-79
2023/10/09 07:09:15;;;;;;;14.70;9.30;;;16.80;99.90;;;;;;5063670;28;20464;-79
2023/10/09 07:17:21;;;;;;;12.07;8.80;;;16.90;99.90;;;;;;5062035;28;20457;-79
2023/10/09 07:20:09;;;;;;;14.93;9.53;;;17.00;99.90;;;;;;5062060;28;20444;-78
2023/10/09 07:22:52;;;;;;;12.13;8.83;;;16.90;99.90;;;;;;5058761;28;20483;-80
2023/10/09 07:25:40;;;;;;;11.97;9.33;;;16.90;99.90;;;;;;5057501;28;20476;-80
2023/10/09 07:28:18;;;;;;;13.47;9.77;;;16.90;99.90;;;;;;5056589;28;20444;-80
2023/10/09 07:30:45;;;;;;;14.07;9.70;;;17.00;99.90;;;;;;5055295;28;20508;-82
2023/10/09 07:33:30;;;;;;;13.40;9.10;;;17.00;99.90;;;;;;5051395;28;20494;-80
2023/10/09 07:35:58;;;;;;;14.33;9.00;;;17.00;99.90;;;;;;5055767;28;20493;-78
2023/10/09 07:38:28;;;;;;;13.87;9.00;;;17.10;99.90;;;;;;5055377;28;20459;-80
2023/10/09 07:40:59;;;;;;;14.70;8.70;;;17.10;99.90;;;;;;5053951;28;20474;-80
2023/10/09 07:43:28;;;;;;;16.13;9.97;;;17.10;99.90;;;;;;5058254;28;20956;-80
2023/10/09 07:48:48;;;;;;;16.57;11.17;;;17.20;99.90;;;;;;5051852;28;20447;-79
2023/10/09 07:51:16;;;;;;;13.93;9.63;;;17.30;99.90;;;;;;5053408;28;20483;-81
2023/10/09 07:53:44;;;;;;;14.03;8.63;;;17.30;99.90;;;;;;5055445;28;20914;-80
2023/10/09 07:56:13;;;;;;;15.97;10.47;;;17.40;99.90;;;;;;5054842;28;20821;-79
2023/10/09 07:58:46;;;;;;;17.23;11.00;;;17.40;99.90;;;;;;5051122;28;20613;-80
2023/10/09 08:01:22;;;;;;;16.10;10.97;;;17.40;99.90;;;;;;5055432;28;20475;-79
2023/10/09 08:04:01;;;;;;;12.30;8.13;;;17.50;99.90;;;;;;5058729;28;20444;-80
2023/10/09 08:06:42;;;;;;;14.43;9.73;;;17.50;99.90;;;;;;5050582;28;20440;-80
2023/10/09 08:09:19;;;;;;;14.90;9.07;;;17.50;99.90;;;;;;5058311;28;20512;-81
2023/10/09 08:14:45;;;;;;;15.10;10.20;;;17.40;99.90;;;;;;5044128;28;20482;-81
2023/10/09 08:17:14;;;;;;;14.47;10.57;;;17.50;99.90;;;;;;5057131;28;20442;-81
2023/10/09 08:19:53;;;;;;;17.70;10.33;;;17.50;99.90;;;;;;5057880;28;20447;-81
2023/10/09 08:25:04;;;;;;;14.40;9.80;;;17.60;99.90;;;;;;5047636;28;20496;-81
2023/10/09 08:27:54;;;;;;;21.23;8.87;;;17.60;99.90;;;;;;5059401;28;20465;-80
2023/10/09 08:30:40;;;;;;;13.70;9.70;;;17.70;99.90;;;;;;5053498;28;20445;-81
2023/10/09 08:35:50;;;;;;;14.70;8.73;;;17.70;99.90;;;;;;5043895;28;20850;-81
2023/10/09 08:38:23;;;;;;;13.00;9.80;;;17.70;99.90;;;;;;5052357;28;20451;-81
2023/10/09 08:40:50;;;;;;;11.83;9.77;;;17.70;99.90;;;;;;5052760;28;20475;-80
2023/10/09 08:43:18;;;;;;;12.20;9.23;;;17.80;99.90;;;;;;5053713;28;20463;-81
2023/10/09 08:45:47;;;;;;;13.70;11.80;;;17.70;99.90;;;;;;5053666;28;20505;-81
2023/10/09 08:48:15;;;;;;;16.10;10.67;;;17.70;99.90;;;;;;5052472;28;20448;-80
2023/10/09 08:50:43;;;;;;;14.93;10.97;;;17.60;99.90;;;;;;5055028;28;20558;-80
2023/10/09 08:53:11;;;;;;;16.70;11.17;;;17.70;99.90;;;;;;5053903;28;20861;-79
2023/10/09 08:55:39;;;;;;;14.80;11.07;;;17.60;99.90;;;;;;5054448;28;20944;-80
2023/10/09 08:58:18;;;;;;;19.17;12.60;;;17.60;99.90;;;;;;5053612;28;20461;-79
2023/10/09 09:00:45;;;;;;;13.90;10.90;;;17.60;99.90;;;;;;5052714;28;20996;-80
2023/10/09 09:03:12;;;;;;;17.67;11.13;;;17.60;99.90;;;;;;5054130;28;20473;-81
2023/10/09 09:05:39;;;;;;;15.27;9.70;;;17.50;99.90;;;;;;5054239;28;20903;-79
2023/10/09 09:08:28;;;;;;;17.10;10.57;;;17.50;99.90;;;;;;5053247;28;20467;-80
2023/10/09 09:11:11;;;;;;;15.53;10.50;;;17.60;99.90;;;;;;5053493;28;20916;-80
2023/10/09 09:13:41;;;;;;;15.20;9.10;;;17.60;99.90;;;;;;5053159;28;20488;-80
2023/10/09 09:16:14;;;;;;;14.40;10.23;;;17.70;99.90;;;;;;5053171;28;20517;-80
2023/10/09 09:18:52;;;;;;;14.83;9.90;;;17.80;99.90;;;;;;5052507;28;20457;-80
2023/10/09 09:21:22;;;;;;;17.77;10.67;;;17.80;99.90;;;;;;5053008;28;20481;-80
2023/10/09 09:24:01;;;;;;;18.63;10.33;;;17.90;99.90;;;;;;5053659;28;20554;-79
2023/10/09 09:26:37;;;;;;;12.67;9.70;;;18.00;99.90;;;;;;5053942;28;20497;-80
2023/10/09 09:29:08;;;;;;;15.30;10.80;;;18.10;99.90;;;;;;5052932;28;20466;-80
2023/10/09 09:31:37;;;;;;;13.27;9.60;;;18.20;99.90;;;;;;5054895;28;20475;-79
2023/10/09 09:34:12;;;;;;;15.77;10.70;;;18.20;99.90;;;;;;5053319;28;20559;-79
2023/10/09 09:36:53;;;;;;;13.60;9.93;;;18.40;99.90;;;;;;5054144;28;20468;-81
2023/10/09 09:39:27;;;;;;;13.97;9.17;;;18.60;99.90;;;;;;5053093;28;20856;-80
2023/10/09 09:42:03;;;;;;;12.17;8.97;;;18.80;99.90;;;;;;5055149;28;20517;-80
2023/10/09 09:44:43;;;;;;;12.40;8.90;;;18.80;99.90;;;;;;5057648;28;20454;-80
2023/10/09 09:47:13;;;;;;;11.73;9.03;;;18.90;99.90;;;;;;5056290;28;20938;-78
2023/10/09 09:49:43;;;;;;;13.77;9.40;;;19.00;99.90;;;;;;5056531;28;20865;-79
2023/10/09 09:52:11;;;;;;;14.97;9.57;;;19.00;99.90;;;;;;5057262;28;20475;-79
2023/10/09 09:54:40;;;;;;;19.20;9.80;;;19.10;99.90;;;;;;5058136;28;20854;-79
2023/10/09 09:57:10;;;;;;;13.70;9.50;;;19.10;99.90;;;;;;5057242;28;20783;-80
2023/10/09 09:59:49;;;;;;;14.63;10.90;;;19.20;99.90;;;;;;5058093;28;20467;-80
2023/10/09 10:02:21;;;;;;;12.83;9.40;;;19.20;99.90;;;;;;5055923;28;20554;-79
2023/10/09 10:04:56;;;;;;;14.33;8.80;;;19.20;99.90;;;;;;5058264;28;20467;-80
2023/10/09 10:07:25;;;;;;;11.70;8.87;;;19.10;99.90;;;;;;5056603;28;20554;-79
2023/10/09 10:09:57;;;;;;;12.13;8.67;;;19.20;99.90;;;;;;5056952;28;20459;-81
2023/10/09 10:13:00;;;;;;;14.50;8.90;;;19.30;99.90;;;;;;5058110;28;20521;-79
2023/10/09 10:15:56;;;;;;;11.67;8.37;;;19.20;99.90;;;;;;5056174;28;20508;-78
2023/10/09 10:18:23;;;;;;;14.30;9.30;;;19.40;99.90;;;;;;5051265;28;20459;-78
2023/10/09 10:21:15;;;;;;;12.47;8.30;;;19.50;99.90;;;;;;5061973;28;21037;-78
2023/10/09 10:23:46;;;;;;;12.50;8.03;;;19.60;99.90;;;;;;5061042;28;20447;-78
2023/10/09 10:26:25;;;;;;;15.30;10.03;;;19.70;99.90;;;;;;5059274;28;20448;-78
2023/10/09 10:29:23;;;;;;;16.50;8.80;;;19.60;99.90;;;;;;5055833;28;20451;-78
2023/10/09 10:31:57;;;;;;;14.03;8.00;;;19.70;99.90;;;;;;5061102;28;20971;-78
2023/10/09 10:34:25;;;;;;;13.93;9.77;;;19.70;99.90;;;;;;5059716;28;20475;-79
2023/10/09 10:36:58;;;;;;;11.73;8.27;;;19.50;99.90;;;;;;5061343;28;20537;-78
2023/10/09 10:39:42;;;;;;;16.50;10.13;;;19.50;99.90;;;;;;5059899;28;20860;-78
2023/10/09 10:42:33;;;;;;;11.83;8.57;;;19.40;99.90;;;;;;5058555;28;20525;-80
2023/10/09 10:45:00;;;;;;;11.40;9.40;;;19.40;99.90;;;;;;5061131;28;20460;-79
2023/10/09 10:47:34;;;;;;;14.93;8.83;;;19.50;99.90;;;;;;5060506;28;20546;-78
2023/10/09 10:50:20;;;;;;;12.30;8.43;;;19.50;99.90;;;;;;5060841;28;20452;-79
2023/10/09 10:52:58;;;;;;;14.40;8.73;;;19.60;99.90;;;;;;5062014;28;20526;-79
2023/10/09 10:58:24;;;;;;;18.77;9.60;;;19.90;99.90;;;;;;5057720;28;20435;-78
2023/10/09 11:01:15;;;;;;;14.50;10.33;;;20.00;99.90;;;;;;5057630;28;20472;-77
2023/10/09 11:03:57;;;;;;;12.83;9.10;;;20.10;99.90;;;;;;5051502;28;20524;-78
2023/10/09 11:06:37;;;;;;;15.00;9.30;;;20.00;99.90;;;;;;5058374;28;20898;-78
2023/10/09 11:09:20;;;;;;;11.47;8.47;;;20.20;99.90;;;;;;5058589;28;20511;-78
2023/10/09 11:11:48;;;;;;;11.97;9.10;;;20.30;99.90;;;;;;5057161;28;20498;-79
2023/10/09 11:14:23;;;;;;;14.90;8.50;;;20.40;99.90;;;;;;5061681;28;21030;-78
2023/10/09 11:16:50;;;;;;;14.33;7.37;;;20.50;99.90;;;;;;5062212;28;20478;-78
2023/10/09 11:19:28;;;;;;;13.50;7.90;;;20.60;99.90;;;;;;5062596;28;20536;-79
2023/10/09 11:22:24;;;;;;;11.97;8.80;;;20.70;99.90;;;;;;5067452;28;20929;-77
2023/10/09 11:25:00;;;;;;;13.43;8.90;;;20.70;99.90;;;;;;5063835;28;20862;-78
2023/10/09 11:27:32;;;;;;;11.70;8.77;;;20.60;99.90;;;;;;5057993;28;20450;-78
2023/10/09 11:30:21;;;;;;;14.00;9.20;;;20.40;99.90;;;;;;5054991;28;20970;-79
2023/10/09 11:32:49;;;;;;;13.43;8.40;;;20.50;99.90;;;;;;5055964;28;20451;-78
2023/10/09 11:35:27;;;;;;;16.23;8.37;;;20.70;99.90;;;;;;5056374;28;20869;-77
2023/10/09 11:37:57;;;;;;;13.10;8.93;;;20.80;99.90;;;;;;5054223;28;20447;-78
2023/10/09 11:40:47;;;;;;;11.20;8.70;;;20.70;99.90;;;;;;5056632;28;20443;-78
2023/10/09 11:43:14;;;;;;;14.20;8.97;;;20.70;99.90;;;;;;5055213;28;20970;-77
2023/10/09 11:45:54;;;;;;;14.37;9.50;;;20.70;99.90;;;;;;5051973;28;20483;-78
2023/10/09 11:48:27;;;;;;;14.63;9.23;;;20.60;99.90;;;;;;5045130;28;20448;-79
2023/10/09 11:50:55;;;;;;;13.53;9.30;;;20.70;99.90;;;;;;5051297;28;20463;-79
2023/10/09 11:53:34;;;;;;;18.83;9.97;;;20.90;99.90;;;;;;5054316;28;20448;-77
2023/10/09 11:56:01;;;;;;;13.40;8.77;;;21.20;99.90;;;;;;5057075;28;20444;-79
2023/10/09 11:58:28;;;;;;;14.43;9.07;;;21.30;99.90;;;;;;5057142;28;20460;-77
2023/10/09 12:00:59;;;;;;;13.73;9.13;;;21.50;99.90;;;;;;5056455;28;20480;-80
2023/10/09 12:03:29;;;;;;;12.63;8.67;;;21.50;99.90;;;;;;5053634;28;20458;-79
2023/10/09 12:05:57;;;;;;;12.33;8.90;;;21.60;99.90;;;;;;5053194;28;20455;-79
2023/10/09 12:08:26;;;;;;;14.73;9.07;;;21.50;99.90;;;;;;5055071;28;20822;-79
2023/10/09 12:10:55;;;;;;;11.20;8.97;;;21.40;99.90;;;;;;5051302;28;21028;-79
2023/10/09 12:13:22;;;;;;;12.50;9.40;;;21.40;99.90;;;;;;5051530;28;20447;-78
2023/10/09 12:15:52;;;;;;;19.37;10.07;;;21.40;99.90;;;;;;5047666;28;20444;-79
2023/10/09 12:18:21;;;;;;;21.37;10.77;;;21.30;99.90;;;;;;5048502;28;20944;-79
2023/10/09 12:20:51;;;;;;;14.30;10.57;;;21.00;99.90;;;;;;5049624;28;20991;-78
2023/10/09 12:23:19;;;;;;;12.77;9.27;;;21.20;99.90;;;;;;5046545;28;20451;-78
2023/10/09 12:25:46;;;;;;;12.10;9.60;;;21.20;99.90;;;;;;5053415;28;20535;-79
2023/10/09 12:28:13;;;;;;;15.30;10.13;;;21.10;99.90;;;;;;5052505;28;20478;-79
2023/10/09 12:30:42;;;;;;;19.30;9.93;;;21.00;99.90;;;;;;5053076;28;20476;-78
2023/10/09 12:33:11;;;;;;;18.43;10.67;;;21.00;99.90;;;;;;5052623;28;20448;-79
2023/10/09 12:35:41;;;;;;;12.30;8.67;;;20.80;99.90;;;;;;5052531;28;20492;-79
2023/10/09 12:38:10;;;;;;;16.87;9.83;;;20.80;99.90;;;;;;5052029;28;20542;-78
2023/10/09 12:40:38;;;;;;;15.77;10.43;;;20.80;99.90;;;;;;5052770;28;20512;-78
2023/10/09 12:43:05;;;;;;;14.30;9.87;;;20.80;99.90;;;;;;5053432;28;20456;-78
2023/10/09 12:45:35;;;;;;;11.70;8.63;;;20.80;99.90;;;;;;5053327;28;20524;-78
2023/10/09 12:48:03;;;;;;;19.17;9.73;;;21.00;99.90;;;;;;5050720;28;20456;-78
2023/10/09 12:50:33;;;;;;;16.80;10.57;;;21.00;99.90;;;;;;5048220;28;20464;-78
2023/10/09 12:53:06;;;;;;;14.67;9.70;;;20.90;99.90;;;;;;5056148;28;20524;-79
2023/10/09 12:55:37;;;;;;;12.67;7.97;;;21.00;99.90;;;;;;5055745;28;20479;-77
2023/10/09 12:58:06;;;;;;;13.10;8.73;;;21.00;99.90;;;;;;5057137;28;21031;-78
2023/10/09 13:00:36;;;;;;;11.90;8.20;;;21.00;99.90;;;;;;5057532;28;20551;-79
2023/10/09 13:03:16;;;;;;;14.40;8.60;;;21.00;99.90;;;;;;5055004;28;20444;-78
2023/10/09 13:05:51;;;;;;;14.83;8.90;;;21.00;99.90;;;;;;5055765;28;20474;-76
2023/10/09 13:08:24;;;;;;;12.97;9.63;;;21.00;99.90;;;;;;5038706;28;20921;-77
2023/10/09 13:10:58;;;;;;;12.80;8.87;;;21.00;99.90;;;;;;5055563;28;20483;-77
2023/10/09 13:13:36;;;;;;;14.73;9.60;;;21.00;99.90;;;;;;5056619;28;20452;-78
2023/10/09 13:16:05;;;;;;;16.17;9.90;;;21.10;99.90;;;;;;5058490;28;20432;-78
2023/10/09 13:18:32;;;;;;;13.10;9.47;;;21.00;99.90;;;;;;5062506;28;20505;-78
2023/10/09 13:21:03;;;;;;;17.00;8.73;;;21.00;99.90;;;;;;5063072;28;20471;-78
2023/10/09 13:23:38;;;;;;;13.47;8.97;;;21.00;99.90;;;;;;5064498;28;20864;-78
2023/10/09 13:26:17;;;;;;;13.20;8.90;;;20.90;99.90;;;;;;5063735;28;20451;-78
2023/10/09 13:28:45;;;;;;;14.43;9.87;;;20.80;99.90;;;;;;5062467;28;20440;-78
2023/10/09 13:31:14;;;;;;;14.50;9.27;;;21.00;99.90;;;;;;5063316;28;20475;-78
2023/10/09 13:33:41;;;;;;;16.33;10.40;;;21.20;99.90;;;;;;5063262;28;20490;-79
2023/10/09 13:36:16;;;;;;;22.30;9.80;;;21.30;99.90;;;;;;5064559;28;20495;-79
2023/10/09 13:38:44;;;;;;;19.93;8.90;;;21.60;99.90;;;;;;5062634;28;20492;-78
2023/10/09 13:41:14;;;;;;;14.80;8.93;;;21.90;99.90;;;;;;5062880;28;20487;-79
2023/10/09 13:43:42;;;;;;;18.23;9.60;;;22.20;99.90;;;;;;5063612;28;20547;-79
2023/10/09 13:46:11;;;;;;;15.10;9.40;;;22.30;99.90;;;;;;5063040;28;20440;-78
2023/10/09 13:48:40;;;;;;;14.50;7.90;;;22.10;99.90;;;;;;5060430;28;20459;-79
2023/10/09 13:51:13;;;;;;;16.47;9.97;;;22.10;99.90;;;;;;5060812;28;20482;-78
2023/10/09 13:53:44;;;;;;;14.40;9.53;;;21.90;99.90;;;;;;5061969;28;20447;-79
2023/10/09 13:56:18;;;;;;;13.67;8.47;;;21.80;99.90;;;;;;5060957;28;20467;-79
2023/10/09 13:58:45;;;;;;;13.53;9.80;;;21.70;99.90;;;;;;5061412;28;20459;-79